Time;durP1;ratioP1;P1;durP2;ratioP2;P2;SDS_P1;SDS_P2;PMS_P1;PMS_P2;Temp;Humidity;BMP_temperature;BMP_pressure;BME280_temperature;BME280_humidity;BME280_pressure;Samples;Min_cycle;Max_cycle;Signal;HPM_P1;HPM_P2
2021/06/19 00:09:11;;;;;;;;;;;;;;;;;;;;;
2021/06/19 00:25:21;;;;;;;;;;;;;;;;;;;;;
2021/06/19 00:32:00;;;;;;;11.23;9.30;;;22.10;97.30;;;;;;4650496;30;21060;-90
2021/06/19 00:34:50;;;;;;;10.90;9.60;;;22.10;97.30;;;;;;4649725;30;20464;-90
2021/06/19 00:37:19;;;;;;;12.47;10.60;;;22.10;97.30;;;;;;4659007;30;20572;-90
2021/06/19 00:39:50;;;;;;;15.93;11.90;;;22.10;97.30;;;;;;4666978;30;20504;-90
2021/06/19 00:42:31;;;;;;;;;;;;;;;;;;;;;
2021/06/19 00:45:00;;;;;;;16.57;11.10;;;22.10;97.30;;;;;;4691426;30;20425;-89
2021/06/19 00:47:49;;;;;;;15.00;11.03;;;22.10;97.30;;;;;;4753119;30;20436;-90
2021/06/19 00:50:31;;;;;;;12.53;10.20;;;22.00;97.30;;;;;;4739171;29;20458;-90
2021/06/19 00:53:32;;;;;;;15.50;10.80;;;22.00;97.30;;;;;;4792029;29;20453;-90
2021/06/19 00:56:10;;;;;;;15.87;10.17;;;22.00;97.30;;;;;;4774708;29;20440;-90
2021/06/19 00:58:51;;;;;;;13.47;9.90;;;22.10;97.30;;;;;;4791919;29;20989;-90
2021/06/19 01:02:01;;;;;;;14.00;9.37;;;22.10;97.30;;;;;;4806892;29;20460;-90
2021/06/19 01:04:21;;;;;;;14.83;10.63;;;22.10;97.30;;;;;;4797050;29;20414;-90
2021/06/19 01:07:01;;;;;;;15.47;9.37;;;22.10;97.30;;;;;;4792004;29;20418;-90
2021/06/19 01:09:30;;;;;;;12.33;10.37;;;22.10;97.30;;;;;;4791584;29;20418;-89
2021/06/19 01:12:30;;;;;;;11.10;9.20;;;22.00;97.30;;;;;;4791674;29;20442;-90
2021/06/19 01:15:11;;;;;;;12.20;10.50;;;22.10;97.30;;;;;;4806856;29;20430;-90
2021/06/19 01:17:40;;;;;;;15.13;9.47;;;22.10;97.30;;;;;;4791988;29;20466;-90
2021/06/19 01:20:50;;;;;;;12.00;9.30;;;22.10;97.30;;;;;;4843589;29;20441;-90
2021/06/19 01:23:31;;;;;;;11.97;9.40;;;22.20;97.30;;;;;;4900735;29;20453;-90
2021/06/19 01:25:59;;;;;;;14.93;9.70;;;22.20;97.30;;;;;;4884513;29;20826;-90
2021/06/19 01:28:40;;;;;;;15.37;10.00;;;22.10;97.30;;;;;;4883431;29;20425;-90
2021/06/19 01:35:11;;;;;;;13.30;9.37;;;22.00;97.30;;;;;;4901362;29;20515;-90
2021/06/19 01:42:10;;;;;;;12.77;9.20;;;21.80;97.30;;;;;;4901333;29;20441;-90
2021/06/19 01:44:39;;;;;;;13.43;9.67;;;21.80;97.30;;;;;;4880502;29;20489;-89
2021/06/19 01:47:17;;;;;;;11.90;9.50;;;21.70;97.30;;;;;;4885384;29;20418;-90
2021/06/19 01:50:29;;;;;;;13.30;9.60;;;21.70;97.30;;;;;;4884762;29;20425;-90
2021/06/19 01:53:20;;;;;;;14.90;8.97;;;21.70;97.30;;;;;;4902412;29;20413;-91
2021/06/19 01:55:49;;;;;;;14.27;9.70;;;21.70;97.30;;;;;;4880078;29;20427;-90
2021/06/19 01:58:20;;;;;;;11.60;8.53;;;21.70;97.30;;;;;;4902505;29;20477;-90
2021/06/19 02:00:48;;;;;;;12.67;9.47;;;21.70;97.30;;;;;;4884871;29;20441;-90
2021/06/19 02:03:20;;;;;;;11.93;8.87;;;21.70;97.30;;;;;;4902098;29;20424;-90
2021/06/19 02:05:49;;;;;;;12.57;9.23;;;21.70;97.30;;;;;;4901025;29;20429;-90
2021/06/19 02:08:21;;;;;;;15.33;9.63;;;21.70;97.30;;;;;;4885071;29;20490;-90
2021/06/19 02:10:50;;;;;;;9.93;9.23;;;21.80;97.30;;;;;;4884191;29;20453;-90
2021/06/19 02:13:19;;;;;;;12.47;9.57;;;21.80;97.30;;;;;;4900028;29;20429;-90
2021/06/19 02:16:21;;;;;;;10.60;9.03;;;21.80;97.30;;;;;;4899895;29;20457;-90
2021/06/19 02:18:50;;;;;;;11.23;9.17;;;21.80;97.30;;;;;;4882838;29;20522;-90
2021/06/19 02:22:10;;;;;;;14.10;9.60;;;21.80;97.30;;;;;;4882954;29;20444;-90
2021/06/19 02:24:41;;;;;;;23.70;9.27;;;21.80;97.30;;;;;;4868718;29;20556;-90
2021/06/19 02:27:20;;;;;;;12.40;9.53;;;21.90;97.30;;;;;;4882959;29;20426;-91
2021/06/19 02:29:50;;;;;;;10.80;9.30;;;21.90;97.30;;;;;;4882168;29;20428;-90
2021/06/19 02:32:19;;;;;;;15.83;9.67;;;21.80;97.30;;;;;;4898800;29;20469;-90
2021/06/19 02:34:50;;;;;;;12.50;9.53;;;21.80;97.30;;;;;;4882643;29;20861;-90
2021/06/19 02:37:21;;;;;;;13.53;9.57;;;21.70;97.30;;;;;;4882335;29;20571;-90
2021/06/19 02:39:50;;;;;;;12.57;10.23;;;21.70;97.30;;;;;;4881831;29;20798;-90
2021/06/19 02:42:18;;;;;;;15.57;9.63;;;21.60;97.30;;;;;;4882348;29;20795;-90
2021/06/19 02:44:50;;;;;;;16.50;9.20;;;21.60;97.30;;;;;;4882445;29;20481;-90
2021/06/19 02:47:21;;;;;;;13.20;9.50;;;21.50;97.30;;;;;;4882039;29;21055;-89
2021/06/19 02:49:50;;;;;;;15.83;9.90;;;21.40;97.30;;;;;;4899551;29;20453;-90
2021/06/19 02:53:00;;;;;;;16.67;11.33;;;21.30;97.30;;;;;;4882616;29;20429;-90
2021/06/19 02:55:41;;;;;;;11.33;10.10;;;21.30;97.30;;;;;;4872323;29;20425;-90
2021/06/19 02:58:11;;;;;;;12.60;10.30;;;21.30;97.30;;;;;;4883206;29;20457;-90
2021/06/19 03:01:00;;;;;;;12.80;9.27;;;21.20;97.30;;;;;;4882557;29;20505;-90
2021/06/19 03:03:31;;;;;;;10.60;9.80;;;21.20;97.30;;;;;;4882627;29;20464;-90
2021/06/19 03:06:01;;;;;;;14.10;10.77;;;21.10;97.30;;;;;;4882621;29;20410;-90
2021/06/19 03:08:30;;;;;;;16.17;9.97;;;21.10;97.30;;;;;;4882519;29;20429;-90
2021/06/19 03:11:01;;;;;;;11.50;9.33;;;21.10;97.30;;;;;;4882723;29;20473;-90
2021/06/19 03:13:30;;;;;;;12.90;9.60;;;21.10;97.30;;;;;;4883715;29;20422;-89
2021/06/19 03:16:01;;;;;;;11.60;9.47;;;21.00;97.30;;;;;;4883934;29;20984;-90
2021/06/19 03:18:29;;;;;;;13.03;9.97;;;21.00;97.30;;;;;;4884251;29;20487;-90
2021/06/19 03:21:00;;;;;;;11.50;9.60;;;20.90;97.30;;;;;;4884017;29;20449;-90
2021/06/19 03:23:29;;;;;;;12.90;10.47;;;20.90;97.30;;;;;;4900683;29;20469;-90
2021/06/19 03:26:01;;;;;;;13.40;11.20;;;20.90;97.30;;;;;;4883571;29;20445;-90
2021/06/19 03:29:19;;;;;;;16.10;10.53;;;21.00;97.30;;;;;;4883931;29;20429;-90
2021/06/19 03:32:11;;;;;;;14.83;9.77;;;21.00;97.30;;;;;;4882912;29;20536;-90
2021/06/19 03:42:51;;;;;;;;;;;;;;;;;;;;;
2021/06/19 03:45:39;;;;;;;11.83;9.90;;;21.10;97.30;;;;;;4751466;30;20428;-90
2021/06/19 03:48:11;;;;;;;11.90;9.77;;;21.10;97.30;;;;;;4735565;30;20433;-90
2021/06/19 03:51:01;;;;;;;16.30;10.90;;;21.10;97.30;;;;;;4745654;30;20448;-90
2021/06/19 03:57:00;;;;;;;10.60;9.23;;;21.10;97.30;;;;;;4843786;29;20890;-89
2021/06/19 04:23:51;;;;;;;13.20;10.40;;;21.20;97.30;;;;;;4825973;29;20481;-90
2021/06/19 04:35:50;;;;;;;14.20;10.90;;;21.40;97.30;;;;;;4906737;29;20488;-90
2021/06/19 04:38:49;;;;;;;14.00;10.70;;;21.50;97.30;;;;;;4913864;29;20475;-89
2021/06/19 04:48:01;;;;;;;14.43;10.30;;;21.70;97.30;;;;;;4921026;29;20440;-89
2021/06/19 04:50:31;;;;;;;13.80;10.33;;;21.70;97.30;;;;;;4891939;29;20451;-89
2021/06/19 04:53:51;;;;;;;16.93;11.90;;;21.80;97.30;;;;;;4904784;29;20420;-90
2021/06/19 04:56:19;;;;;;;13.00;10.50;;;21.90;97.30;;;;;;4903903;29;20435;-90
2021/06/19 05:12:11;;;;;;;12.70;10.37;;;22.10;97.30;;;;;;4921690;29;20805;-90
2021/06/19 05:14:40;;;;;;;16.27;10.60;;;22.20;97.30;;;;;;4904513;29;20513;-89
2021/06/19 05:17:11;;;;;;;15.20;10.50;;;22.20;97.30;;;;;;4904321;29;20504;-89
2021/06/19 05:19:39;;;;;;;15.23;10.30;;;22.30;97.30;;;;;;4904222;29;20428;-89
2021/06/19 05:22:10;;;;;;;14.10;11.37;;;22.40;97.30;;;;;;4920262;29;20472;-90
2021/06/19 05:24:39;;;;;;;23.83;11.30;;;22.40;97.30;;;;;;4903479;29;20435;-89
2021/06/19 05:27:21;;;;;;;23.17;10.93;;;22.50;97.30;;;;;;4902732;29;20421;-89
2021/06/19 05:29:50;;;;;;;14.57;10.27;;;22.60;97.30;;;;;;4902448;29;20943;-89
2021/06/19 05:32:17;;;;;;;14.20;9.90;;;22.60;97.30;;;;;;4946519;23;20507;-67
2021/06/19 05:34:43;;;;;;;12.87;10.57;;;22.70;97.30;;;;;;4934443;29;20918;-68
2021/06/19 05:37:09;;;;;;;14.50;10.30;;;22.80;97.30;;;;;;4917389;29;20451;-68
2021/06/19 05:39:35;;;;;;;13.30;10.80;;;22.90;97.30;;;;;;4917649;29;20176;-66
2021/06/19 05:42:00;;;;;;;17.17;11.50;;;23.00;97.30;;;;;;4918083;29;20515;-66
2021/06/19 05:44:26;;;;;;;10.77;10.17;;;23.10;97.30;;;;;;4934300;29;20172;-66
2021/06/19 05:46:51;;;;;;;13.37;10.33;;;23.10;97.30;;;;;;4933659;29;20177;-66
2021/06/19 05:49:17;;;;;;;17.70;10.10;;;23.20;97.30;;;;;;4934774;29;20509;-66
2021/06/19 05:51:43;;;;;;;15.00;10.40;;;23.30;97.30;;;;;;4934922;29;20199;-66
2021/06/19 05:54:08;;;;;;;12.80;10.20;;;23.40;97.30;;;;;;4917990;29;20180;-69
2021/06/19 05:56:34;;;;;;;13.67;10.20;;;23.40;97.30;;;;;;4918062;29;20555;-67
2021/06/19 05:59:00;;;;;;;14.43;10.03;;;23.50;97.30;;;;;;4934791;29;20172;-67
2021/06/19 06:01:25;;;;;;;13.67;10.10;;;23.60;97.30;;;;;;4934854;29;20563;-67
2021/06/19 06:03:51;;;;;;;14.13;10.77;;;23.70;97.30;;;;;;4918067;29;20168;-67
2021/06/19 06:06:17;;;;;;;11.93;9.37;;;23.80;97.30;;;;;;4918232;29;20729;-67
2021/06/19 06:08:44;;;;;;;13.77;9.77;;;24.00;96.50;;;;;;4935255;29;20563;-67
2021/06/19 06:11:10;;;;;;;17.70;10.23;;;24.10;96.50;;;;;;4917729;29;20494;-67
2021/06/19 06:13:35;;;;;;;17.43;9.63;;;24.20;96.20;;;;;;4917589;29;20420;-67
2021/06/19 06:16:01;;;;;;;11.23;9.97;;;24.40;96.50;;;;;;4911767;29;20484;-67
2021/06/19 06:18:27;;;;;;;13.13;10.20;;;24.50;95.50;;;;;;4922709;29;20227;-67
2021/06/19 06:20:52;;;;;;;14.20;10.13;;;24.60;94.60;;;;;;4926257;29;20282;-67
2021/06/19 06:23:18;;;;;;;12.43;9.00;;;24.70;93.50;;;;;;4913258;29;20274;-67
2021/06/19 06:25:44;;;;;;;12.10;9.60;;;24.80;94.20;;;;;;4920831;29;20652;-67
2021/06/19 06:28:10;;;;;;;13.00;10.33;;;24.90;94.30;;;;;;4898183;29;20185;-67
2021/06/19 06:30:35;;;;;;;12.80;10.00;;;25.00;94.10;;;;;;4899805;29;20846;-67
2021/06/19 06:33:01;;;;;;;13.93;10.00;;;25.00;94.70;;;;;;4916147;29;20236;-67
2021/06/19 06:35:26;;;;;;;12.93;9.90;;;25.10;94.00;;;;;;4930172;29;20179;-67
2021/06/19 06:37:52;;;;;;;11.60;9.97;;;25.20;93.30;;;;;;4931526;29;20207;-67
2021/06/19 06:40:18;;;;;;;11.50;9.60;;;25.30;92.60;;;;;;4929191;29;20187;-67
2021/06/19 06:42:44;;;;;;;12.73;9.70;;;25.40;92.80;;;;;;4929141;29;20172;-67
2021/06/19 06:45:11;;;;;;;15.00;9.97;;;25.50;92.20;;;;;;4916615;29;20479;-67
2021/06/19 06:47:38;;;;;;;15.30;9.97;;;25.60;91.90;;;;;;4916081;29;20679;-67
2021/06/19 06:50:06;;;;;;;15.53;9.30;;;25.60;92.90;;;;;;4916271;29;20967;-67
2021/06/19 06:52:33;;;;;;;12.73;9.60;;;25.70;92.40;;;;;;4912138;29;20448;-67
2021/06/19 06:54:58;;;;;;;11.30;9.13;;;25.80;91.80;;;;;;4913382;29;20982;-67
2021/06/19 06:57:24;;;;;;;11.60;8.97;;;25.90;91.20;;;;;;4917146;29;20464;-67
2021/06/19 06:59:50;;;;;;;12.37;8.93;;;25.90;91.10;;;;;;4909854;29;20191;-67
2021/06/19 07:02:16;;;;;;;13.67;8.57;;;26.00;90.30;;;;;;4898417;29;20651;-66
2021/06/19 07:04:41;;;;;;;11.80;8.93;;;26.10;91.30;;;;;;4907448;29;20550;-67
2021/06/19 07:07:07;;;;;;;12.60;8.93;;;26.10;90.70;;;;;;4905759;29;20656;-67
2021/06/19 07:09:32;;;;;;;12.20;8.53;;;26.20;89.90;;;;;;4920898;29;20188;-67
2021/06/19 07:11:58;;;;;;;14.90;8.93;;;26.20;89.30;;;;;;4911155;29;20219;-68
2021/06/19 07:14:24;;;;;;;13.53;8.93;;;26.30;88.40;;;;;;4915073;29;20279;-69
2021/06/19 07:16:49;;;;;;;11.70;8.73;;;26.40;88.10;;;;;;4914289;29;20203;-68
2021/06/19 07:19:15;;;;;;;16.07;9.30;;;26.50;88.40;;;;;;4899198;29;20254;-68
2021/06/19 07:21:41;;;;;;;12.47;8.70;;;26.50;89.10;;;;;;4914121;29;20667;-68
2021/06/19 07:24:07;;;;;;;9.07;8.60;;;26.60;89.50;;;;;;4933252;29;20176;-68
2021/06/19 07:26:32;;;;;;;14.30;8.87;;;26.80;89.60;;;;;;4915177;29;20183;-69
2021/06/19 07:28:59;;;;;;;10.40;9.03;;;26.90;89.30;;;;;;4916187;29;20662;-67
2021/06/19 07:31:25;;;;;;;10.70;9.20;;;27.00;89.60;;;;;;4916054;29;20205;-68
2021/06/19 07:33:51;;;;;;;10.53;9.07;;;27.10;88.10;;;;;;4915706;29;20478;-68
2021/06/19 07:36:16;;;;;;;12.60;8.40;;;27.20;87.50;;;;;;4916168;29;20420;-67
2021/06/19 07:38:42;;;;;;;9.93;8.90;;;27.20;87.00;;;;;;4932791;29;20219;-68
2021/06/19 07:41:08;;;;;;;13.13;9.40;;;27.30;88.10;;;;;;4932029;29;20204;-69
2021/06/19 07:43:34;;;;;;;10.27;8.77;;;27.40;88.20;;;;;;4932523;29;20793;-68
2021/06/19 07:46:01;;;;;;;14.00;8.57;;;27.50;87.60;;;;;;4932814;29;20311;-68
2021/06/19 07:48:27;;;;;;;13.50;9.83;;;27.60;87.80;;;;;;4932124;29;20176;-68
2021/06/19 07:50:53;;;;;;;9.80;8.47;;;27.70;86.20;;;;;;4918546;29;20499;-68
2021/06/19 07:53:19;;;;;;;11.63;8.87;;;27.70;86.80;;;;;;4912948;29;20527;-69
2021/06/19 07:55:44;;;;;;;15.20;8.87;;;27.80;87.20;;;;;;4912552;29;20461;-68
2021/06/19 07:58:10;;;;;;;12.23;9.20;;;27.80;87.50;;;;;;4911959;29;20271;-68
2021/06/19 08:00:35;;;;;;;11.33;8.43;;;27.90;87.10;;;;;;4912881;29;20197;-67
2021/06/19 08:03:01;;;;;;;11.60;9.33;;;28.00;86.90;;;;;;4905175;29;20184;-68
2021/06/19 08:05:28;;;;;;;12.80;8.77;;;28.10;87.20;;;;;;4932259;29;20542;-68
2021/06/19 08:07:54;;;;;;;9.67;9.23;;;28.20;87.00;;;;;;4915203;29;20213;-68
2021/06/19 08:10:20;;;;;;;13.30;9.30;;;28.20;87.60;;;;;;4913713;29;20435;-68
2021/06/19 08:12:45;;;;;;;11.60;9.23;;;28.30;87.10;;;;;;4911815;29;20656;-68
2021/06/19 08:15:12;;;;;;;8.90;8.40;;;28.40;86.70;;;;;;4931571;29;20184;-68
2021/06/19 08:17:38;;;;;;;11.80;9.20;;;28.50;87.00;;;;;;4914592;29;20568;-66
2021/06/19 08:20:05;;;;;;;12.23;10.13;;;28.50;86.00;;;;;;4931345;29;20426;-67
2021/06/19 08:22:31;;;;;;;11.27;8.50;;;28.60;87.20;;;;;;4914359;29;20200;-65
2021/06/19 08:24:57;;;;;;;10.40;8.40;;;28.60;86.30;;;;;;4933967;29;20912;-64
2021/06/19 08:27:23;;;;;;;12.30;9.10;;;28.60;86.30;;;;;;4934034;29;20737;-65
2021/06/19 08:29:57;;;;;;;15.30;8.77;;;28.60;86.50;;;;;;4916121;29;20179;-65
2021/06/19 08:32:23;;;;;;;13.10;9.83;;;28.70;86.10;;;;;;4902923;29;20471;-65
2021/06/19 08:34:49;;;;;;;16.97;9.77;;;28.70;86.20;;;;;;4913611;29;21166;-65
2021/06/19 08:37:15;;;;;;;22.40;10.20;;;28.80;86.80;;;;;;4898175;29;20208;-65
2021/06/19 08:39:41;;;;;;;14.13;9.97;;;28.90;86.90;;;;;;4901043;29;20223;-65
2021/06/19 08:42:07;;;;;;;13.33;9.33;;;29.00;86.70;;;;;;4918120;29;20443;-65
2021/06/19 08:44:33;;;;;;;10.40;8.47;;;29.10;87.70;;;;;;4901328;29;20433;-65
2021/06/19 08:46:59;;;;;;;12.47;9.80;;;29.20;86.40;;;;;;4918400;29;20189;-65
2021/06/19 08:49:26;;;;;;;10.43;9.20;;;29.20;86.80;;;;;;4917374;29;20191;-65
2021/06/19 08:51:53;;;;;;;14.37;9.90;;;29.30;86.20;;;;;;4901114;29;20200;-65
2021/06/19 08:54:20;;;;;;;12.50;9.47;;;29.40;85.50;;;;;;4906993;29;20526;-65
2021/06/19 08:56:46;;;;;;;9.83;8.30;;;29.50;86.20;;;;;;4919443;29;20464;-66
2021/06/19 08:59:12;;;;;;;11.00;9.70;;;29.60;85.70;;;;;;4935544;29;20431;-66
2021/06/19 09:01:39;;;;;;;11.30;9.67;;;29.80;85.90;;;;;;4917127;29;20195;-66
2021/06/19 09:04:06;;;;;;;10.30;8.50;;;29.90;85.80;;;;;;4931482;29;20259;-66
2021/06/19 09:06:36;;;;;;;9.60;9.13;;;29.90;85.90;;;;;;4930670;29;20434;-66
2021/06/19 09:09:15;;;;;;;13.47;8.70;;;30.00;86.10;;;;;;4935726;29;20931;-65
2021/06/19 09:11:55;;;;;;;10.80;8.17;;;30.10;84.60;;;;;;4935753;29;20438;-65
2021/06/19 09:14:26;;;;;;;8.90;8.00;;;30.10;84.80;;;;;;4935297;29;20961;-66
2021/06/19 09:17:04;;;;;;;9.80;8.00;;;30.20;83.90;;;;;;4919524;29;21118;-66
2021/06/19 09:19:40;;;;;;;11.33;7.83;;;30.10;83.30;;;;;;4907892;29;20443;-67
2021/06/19 09:22:21;;;;;;;11.17;8.00;;;30.10;83.20;;;;;;4936197;29;20451;-66
2021/06/19 09:24:58;;;;;;;10.90;8.63;;;30.10;83.20;;;;;;4909481;29;20423;-66
2021/06/19 09:27:46;;;;;;;9.43;8.33;;;30.10;84.20;;;;;;4946411;29;20427;-66
2021/06/19 09:30:16;;;;;;;14.60;9.73;;;30.10;85.00;;;;;;4940740;29;20454;-66
2021/06/19 09:32:43;;;;;;;10.70;8.80;;;30.20;83.10;;;;;;4906563;29;20553;-66
2021/06/19 09:35:16;;;;;;;8.93;8.03;;;30.20;82.80;;;;;;4947175;29;21035;-66
2021/06/19 09:37:43;;;;;;;12.73;8.63;;;30.20;83.70;;;;;;4917997;29;20468;-66
2021/06/19 09:40:29;;;;;;;9.70;8.40;;;30.30;82.80;;;;;;4906454;29;20797;-66
2021/06/19 09:43:07;;;;;;;9.40;7.60;;;30.30;82.60;;;;;;4936198;29;20431;-66
2021/06/19 09:45:32;;;;;;;12.27;8.27;;;30.40;82.30;;;;;;4943192;29;20419;-66
2021/06/19 09:47:58;;;;;;;12.33;8.10;;;30.50;82.80;;;;;;4932098;28;20423;-65
2021/06/19 09:50:23;;;;;;;9.00;8.23;;;30.50;81.30;;;;;;4920875;29;20206;-66
2021/06/19 09:52:49;;;;;;;13.00;8.00;;;30.60;82.10;;;;;;4932532;29;20545;-66
2021/06/19 09:55:16;;;;;;;9.07;7.47;;;30.70;82.20;;;;;;4943190;29;20309;-66
2021/06/19 09:57:43;;;;;;;8.70;8.10;;;30.80;81.10;;;;;;4942867;29;20516;-66
2021/06/19 10:00:11;;;;;;;8.90;8.23;;;30.80;82.20;;;;;;4918768;29;20439;-65
2021/06/19 10:02:37;;;;;;;10.10;7.60;;;30.80;82.10;;;;;;4934684;29;20450;-67
2021/06/19 10:05:03;;;;;;;16.20;8.10;;;30.90;83.50;;;;;;4916303;29;20435;-67
2021/06/19 10:07:32;;;;;;;9.53;7.40;;;30.90;83.40;;;;;;4932374;29;20791;-67
2021/06/19 10:09:59;;;;;;;9.90;8.80;;;31.00;84.00;;;;;;4932983;29;20778;-69
2021/06/19 10:12:27;;;;;;;9.33;8.67;;;30.90;84.00;;;;;;4916640;29;20507;-69
2021/06/19 10:15:14;;;;;;;11.17;8.30;;;30.90;84.00;;;;;;4933615;29;20437;-69
2021/06/19 10:17:41;;;;;;;11.57;8.67;;;30.80;84.00;;;;;;4932727;29;21405;-69
2021/06/19 10:20:10;;;;;;;9.20;8.60;;;30.80;83.80;;;;;;4932134;29;20459;-70
2021/06/19 10:22:38;;;;;;;10.97;8.77;;;30.80;85.10;;;;;;4916039;29;20478;-69
2021/06/19 10:25:07;;;;;;;11.70;8.80;;;30.70;84.40;;;;;;4903955;29;21002;-69
2021/06/19 10:27:35;;;;;;;11.23;8.30;;;30.70;84.30;;;;;;4933958;29;20423;-69
2021/06/19 10:30:03;;;;;;;10.47;9.00;;;30.60;85.70;;;;;;4933908;29;20415;-69
2021/06/19 10:32:49;;;;;;;10.37;9.60;;;30.60;84.20;;;;;;4916112;29;20546;-69
2021/06/19 10:35:18;;;;;;;14.60;9.70;;;30.70;84.00;;;;;;4933256;29;20471;-70
2021/06/19 10:37:48;;;;;;;9.33;8.50;;;30.80;83.30;;;;;;4916372;29;20518;-69
2021/06/19 10:40:19;;;;;;;12.37;8.73;;;30.90;82.90;;;;;;4933453;29;20416;-68
2021/06/19 10:42:45;;;;;;;11.60;9.30;;;31.00;83.20;;;;;;4916582;29;20427;-69
2021/06/19 10:45:31;;;;;;;11.47;8.70;;;31.10;80.90;;;;;;4916431;29;20439;-69
2021/06/19 10:48:12;;;;;;;9.90;8.60;;;31.20;81.50;;;;;;4933839;29;20466;-69
2021/06/19 10:50:50;;;;;;;13.13;9.50;;;31.40;82.80;;;;;;4916115;29;20443;-69
2021/06/19 10:53:18;;;;;;;11.10;8.87;;;31.40;81.90;;;;;;4916532;29;20400;-70
2021/06/19 10:55:44;;;;;;;10.30;9.07;;;31.40;82.00;;;;;;4933235;29;20792;-70
2021/06/19 10:58:36;;;;;;;10.37;8.20;;;31.30;83.00;;;;;;4915703;29;20471;-69
2021/06/19 11:01:03;;;;;;;12.43;8.67;;;31.30;83.40;;;;;;4909182;29;20625;-69
2021/06/19 11:03:47;;;;;;;11.90;8.03;;;31.40;83.70;;;;;;4915958;29;20412;-69
2021/06/19 11:06:22;;;;;;;11.10;8.70;;;31.50;83.30;;;;;;4897374;29;20788;-69
2021/06/19 11:09:07;;;;;;;11.17;8.87;;;31.50;83.70;;;;;;4897142;29;20475;-69
2021/06/19 11:12:02;;;;;;;11.37;9.13;;;31.60;82.50;;;;;;4897841;29;20784;-69
2021/06/19 11:14:39;;;;;;;11.10;9.43;;;31.60;81.70;;;;;;4914540;29;20400;-69
2021/06/19 11:17:06;;;;;;;11.67;9.93;;;31.60;81.30;;;;;;4914196;29;20464;-69
2021/06/19 11:19:49;;;;;;;13.23;10.43;;;31.60;81.80;;;;;;4897159;29;20569;-68
2021/06/19 11:22:41;;;;;;;11.87;9.07;;;31.70;81.30;;;;;;4914275;29;20561;-70
2021/06/19 11:25:50;;;;;;;12.73;9.50;;;31.90;80.20;;;;;;4896953;29;20408;-69
2021/06/19 11:28:19;;;;;;;10.33;8.70;;;31.90;81.90;;;;;;4917526;29;20419;-69
2021/06/19 11:30:50;;;;;;;16.83;9.13;;;32.10;81.40;;;;;;4931526;29;20447;-68
2021/06/19 11:43:30;;;;;;;11.00;9.33;;;32.20;80.20;;;;;;4821332;29;20423;-91
2021/06/19 11:46:01;;;;;;;12.90;8.47;;;32.30;80.30;;;;;;4824488;29;20537;-90
2021/06/19 11:48:27;;;;;;;13.43;9.57;;;32.40;81.20;;;;;;4849081;29;20427;-91
2021/06/19 11:51:06;;;;;;;16.33;9.33;;;32.40;81.90;;;;;;4918502;29;20419;-90
2021/06/19 11:53:36;;;;;;;11.00;9.27;;;32.50;80.60;;;;;;4918114;29;20530;-91
2021/06/19 11:56:08;;;;;;;19.10;9.87;;;32.40;80.60;;;;;;4918377;29;20415;-90
2021/06/19 11:58:48;;;;;;;14.57;8.77;;;32.30;79.90;;;;;;4952607;29;20490;-90
2021/06/19 12:01:48;;;;;;;15.93;8.87;;;32.20;80.30;;;;;;4932875;29;20427;-91
2021/06/19 12:05:16;;;;;;;;;;;;;;;;;;;;;
2021/06/19 12:14:16;;;;;;;11.30;8.33;;;31.90;81.60;;;;;;4921748;23;20522;-69
2021/06/19 12:16:42;;;;;;;14.17;9.27;;;32.00;81.90;;;;;;4890961;29;20423;-69
2021/06/19 12:19:08;;;;;;;16.83;9.00;;;32.00;82.10;;;;;;4900253;29;20429;-70
2021/06/19 12:21:39;;;;;;;17.20;9.40;;;32.00;82.30;;;;;;4917178;29;20274;-70
2021/06/19 12:24:26;;;;;;;17.63;9.27;;;32.00;82.20;;;;;;4917473;29;20423;-69
2021/06/19 12:27:09;;;;;;;14.10;9.67;;;32.10;82.90;;;;;;4888367;29;20481;-69
2021/06/19 12:29:40;;;;;;;10.27;9.43;;;32.30;82.90;;;;;;4898148;29;20410;-70
2021/06/19 12:32:23;;;;;;;15.00;9.00;;;32.50;84.60;;;;;;4898169;29;20440;-70
2021/06/19 12:34:50;;;;;;;12.87;8.57;;;32.80;84.90;;;;;;4881246;29;20428;-70
2021/06/19 12:37:21;;;;;;;27.13;8.60;;;33.00;84.20;;;;;;4898064;29;20557;-70
2021/06/19 12:39:47;;;;;;;12.30;9.10;;;33.30;82.10;;;;;;4898093;29;20965;-69
2021/06/19 12:42:34;;;;;;;12.57;9.27;;;33.50;82.20;;;;;;4897611;29;20442;-70
2021/06/19 12:45:13;;;;;;;12.50;8.73;;;33.60;81.00;;;;;;4898208;29;20279;-69
2021/06/19 12:47:43;;;;;;;12.43;8.63;;;33.70;81.50;;;;;;4898010;29;20425;-70
2021/06/19 12:50:11;;;;;;;11.27;8.90;;;33.70;80.10;;;;;;4881361;29;20495;-70
2021/06/19 12:53:16;;;;;;;12.40;8.27;;;33.60;79.90;;;;;;4880795;29;20509;-70
2021/06/19 12:56:03;;;;;;;16.60;8.20;;;33.40;78.90;;;;;;4839760;29;20436;-71
2021/06/19 12:58:37;;;;;;;14.83;8.77;;;33.30;79.10;;;;;;4842769;29;20521;-70
2021/06/19 13:01:14;;;;;;;13.13;8.87;;;33.20;79.10;;;;;;4865797;29;20450;-64
2021/06/19 13:03:39;;;;;;;12.00;9.23;;;33.10;79.60;;;;;;4894848;29;20428;-70
2021/06/19 13:06:05;;;;;;;12.97;8.50;;;32.90;79.80;;;;;;4899562;29;20420;-70
2021/06/19 13:08:32;;;;;;;9.67;8.37;;;32.80;80.30;;;;;;4912493;29;20256;-70
2021/06/19 13:11:20;;;;;;;18.00;9.43;;;32.70;81.20;;;;;;4877941;29;20269;-70
2021/06/19 13:13:49;;;;;;;12.80;8.83;;;32.70;81.40;;;;;;4897806;29;20460;-70
2021/06/19 13:16:16;;;;;;;14.43;9.13;;;32.60;82.00;;;;;;4896425;29;20856;-70
2021/06/19 13:18:57;;;;;;;16.67;9.37;;;32.50;82.50;;;;;;4896108;29;20501;-70
2021/06/19 13:21:22;;;;;;;12.80;10.23;;;32.50;83.40;;;;;;4896407;29;21064;-70
2021/06/19 13:23:48;;;;;;;14.30;8.83;;;32.60;84.80;;;;;;4880335;29;20508;-70
2021/06/19 13:26:28;;;;;;;14.93;9.20;;;32.60;86.00;;;;;;4880915;29;20165;-69
2021/06/19 13:29:00;;;;;;;14.60;8.97;;;32.70;86.00;;;;;;4905560;29;20227;-70
2021/06/19 13:31:33;;;;;;;12.10;9.07;;;32.80;85.80;;;;;;4902097;29;20899;-70
2021/06/19 13:34:27;;;;;;;14.40;9.03;;;32.80;84.10;;;;;;4900178;29;20416;-70
2021/06/19 13:37:11;;;;;;;14.07;9.13;;;32.90;83.20;;;;;;4913581;29;20786;-70
2021/06/19 13:39:39;;;;;;;12.37;8.90;;;33.10;84.30;;;;;;4880129;29;20421;-70
2021/06/19 13:42:08;;;;;;;14.90;8.77;;;33.50;82.70;;;;;;4897149;29;20517;-70
2021/06/19 13:44:38;;;;;;;17.10;9.47;;;33.70;81.10;;;;;;4899825;29;20791;-70
2021/06/19 13:47:10;;;;;;;15.33;8.90;;;34.00;80.90;;;;;;4897102;29;20428;-71
2021/06/19 13:49:38;;;;;;;16.00;9.00;;;34.10;79.20;;;;;;4899559;29;20936;-70
2021/06/19 13:52:10;;;;;;;16.57;8.93;;;34.20;79.20;;;;;;4896800;29;20448;-70
2021/06/19 13:54:45;;;;;;;11.97;8.30;;;34.20;78.20;;;;;;4897211;29;20402;-70
2021/06/19 13:57:13;;;;;;;15.10;8.33;;;34.30;79.40;;;;;;4879774;29;20449;-70
2021/06/19 13:59:46;;;;;;;11.20;9.00;;;34.40;79.60;;;;;;4896618;29;20417;-70
2021/06/19 14:02:13;;;;;;;11.97;8.43;;;34.40;79.30;;;;;;4879786;29;20444;-71
2021/06/19 14:04:40;;;;;;;12.80;8.90;;;34.30;81.20;;;;;;4896799;29;20485;-70
2021/06/19 14:07:06;;;;;;;11.47;8.93;;;34.10;81.00;;;;;;4879774;29;20417;-70
2021/06/19 14:09:33;;;;;;;11.03;8.70;;;33.90;80.40;;;;;;4880028;29;20795;-70
2021/06/19 14:12:00;;;;;;;15.93;9.47;;;33.80;81.90;;;;;;4896437;29;20449;-70
2021/06/19 14:14:26;;;;;;;19.23;9.50;;;33.70;81.90;;;;;;4879874;29;20453;-70
2021/06/19 14:16:52;;;;;;;13.17;8.80;;;33.60;81.70;;;;;;4879663;29;20460;-70
2021/06/19 14:19:17;;;;;;;19.20;9.13;;;33.70;81.00;;;;;;4879560;29;20173;-70
2021/06/19 14:21:43;;;;;;;15.13;7.80;;;33.80;78.90;;;;;;4896480;29;20304;-70
2021/06/19 14:24:09;;;;;;;13.47;8.73;;;34.10;80.80;;;;;;4879550;29;20214;-70
2021/06/19 14:26:36;;;;;;;11.70;7.93;;;34.30;77.20;;;;;;4879080;29;20180;-70
2021/06/19 14:29:03;;;;;;;10.40;9.00;;;34.40;76.80;;;;;;4896655;29;20785;-71
2021/06/19 14:31:29;;;;;;;12.47;9.70;;;34.60;77.80;;;;;;4879170;29;21055;-71
2021/06/19 14:33:55;;;;;;;13.87;8.10;;;34.80;80.70;;;;;;4896364;29;20504;-70
2021/06/19 14:36:21;;;;;;;13.13;8.90;;;34.90;78.50;;;;;;4896079;29;20923;-70
2021/06/19 14:38:48;;;;;;;11.00;8.20;;;35.00;78.00;;;;;;4896134;29;20209;-71
2021/06/19 14:41:14;;;;;;;13.77;9.53;;;35.10;77.00;;;;;;4879345;29;20473;-70
2021/06/19 14:43:40;;;;;;;13.43;9.00;;;35.00;77.70;;;;;;4879187;29;20458;-70
2021/06/19 14:46:07;;;;;;;15.23;8.47;;;35.10;78.50;;;;;;4879259;29;20505;-71
2021/06/19 14:48:34;;;;;;;13.83;9.37;;;35.00;77.60;;;;;;4879236;29;20517;-70
2021/06/19 14:51:00;;;;;;;14.73;8.80;;;34.80;77.90;;;;;;4879235;29;20446;-71
2021/06/19 14:53:27;;;;;;;15.20;8.70;;;34.60;77.40;;;;;;4895928;29;20779;-71
2021/06/19 14:55:53;;;;;;;11.87;8.60;;;34.30;77.20;;;;;;4895898;29;20417;-70
2021/06/19 14:58:19;;;;;;;11.50;8.70;;;34.30;78.70;;;;;;4895757;29;20472;-70
2021/06/19 15:00:44;;;;;;;12.93;8.40;;;34.40;78.40;;;;;;4878891;29;20201;-70
2021/06/19 15:03:14;;;;;;;17.53;8.43;;;34.50;79.20;;;;;;4878854;29;20214;-70